Share

Dubai, UAE

4:59 PM GST on April 24, 2014 (GMT +0400)
Dubai International (OMDB) Elev 26 ft | 25.25 °N, 55.37 °E | Change Station

Current weather conditions updated 59 minutes ago

Clear
Clear
100 °F
Feels Like 100 °F
N
15
Wind Variable Wind from West
Sunrise 5:48 AM
Sunset 6:45 PM
Moon Waning Crescent

Tomorrow is forecast to be Cooler than today.

Pressure 29.77 in
Visibility -9999.0 miles
Clouds
Dew Point 48 °F
Humidity 17%
Rainfall 0.00 in
Snow Depth Not available.
UV Not available.
Pollen Not available.
Air Quality Not available.
Flu Activity Not available.
METAR OMDB 241200Z 27013KT 210V290 CAVOK 38/09 Q1008 NOSIG

More Conditions Fewer Conditions

Pressure 29.77 in
Visibility -9999.0 miles
Clouds
Dew Point 48 °F
Humidity 17%
Rainfall 0.00 in
Snow Depth Not available.
UV Not available.
Pollen Not available.
Air Quality Not available.
Flu Activity Not available.
METAR OMDB 241200Z 27013KT 210V290 CAVOK 38/09 Q1008 NOSIG

More Conditions Fewer Conditions

10-Day Weather Forecast

Almanac

Astronomy

Apr. 24, 2014 Rise Set
Actual Time 5:48 AM GST 6:45 PM GST
Civil Twilight 5:24 AM GST 7:09 PM GST
Nautical Twilight 4:56 AM GST 7:37 PM GST
Astronomical Twilight 4:28 AM GST 8:06 PM GST
Moon 2:10 AM GST 2:05 PM GST
Length of Visible Light 13h 44m
Length of Day
12h 57m
Tomorrow will be 1m 20s longer.
Waning Crescent, 26% of the Moon is Illuminated
Today
Waning Crescent
Apr 29
New
May 6
First Quarter
May 14
Full
May 21
Last Quarter

Yesterday's Extremes

Country Highs Country Lows

Community

  • Stacked
    Stacked
  • clouds approaching Red Sox Nation
    clouds approaching Red Sox Nation
  • Balance
    Balance
  • Citysky
    Citysky
  • Nestled In
    Nestled In

WunderPhotos

Upload Photos

1,704,594 photos uploaded!

Nearby

Snow Depth

Not available.

Coastal Water Temperatures

Place Temperature
No Stations Reporting

Earthquake Activity

City Distance Mag. Time & Date
No recent earthquake activity has been reported nearby.
Minimum magnitude displayed is 2.5.

Nearby Weather Stations

There are no personal weather stations in this area.

What do you think?

We're not finished. Please let us know what you like, what you don't like, and what you are still missing.